sensor_id;sensor_type;location;lat;lon;timestamp;P1;durP1;ratioP1;P2;durP2;ratioP2
30898;SDS011;17914;52.484;13.424;2024-02-14T00:00:23;7.25;;;4.57;;
30898;SDS011;17914;52.484;13.424;2024-02-14T00:02:51;7.50;;;4.20;;
30898;SDS011;17914;52.484;13.424;2024-02-14T00:05:20;6.07;;;4.60;;
30898;SDS011;17914;52.484;13.424;2024-02-14T00:07:50;15.68;;;5.45;;
30898;SDS011;17914;52.484;13.424;2024-02-14T00:10:18;8.85;;;4.60;;
30898;SDS011;17914;52.484;13.424;2024-02-14T00:12:46;8.50;;;4.85;;
30898;SDS011;17914;52.484;13.424;2024-02-14T00:15:14;8.57;;;4.82;;
30898;SDS011;17914;52.484;13.424;2024-02-14T00:17:42;7.65;;;5.07;;
30898;SDS011;17914;52.484;13.424;2024-02-14T00:20:10;7.95;;;5.47;;
30898;SDS011;17914;52.484;13.424;2024-02-14T00:22:39;5.82;;;4.80;;
30898;SDS011;17914;52.484;13.424;2024-02-14T00:25:09;5.82;;;4.47;;
30898;SDS011;17914;52.484;13.424;2024-02-14T00:27:37;8.55;;;4.93;;
30898;SDS011;17914;52.484;13.424;2024-02-14T00:30:06;8.60;;;4.90;;
30898;SDS011;17914;52.484;13.424;2024-02-14T00:32:36;8.52;;;5.35;;
30898;SDS011;17914;52.484;13.424;2024-02-14T00:35:04;10.82;;;5.75;;
30898;SDS011;17914;52.484;13.424;2024-02-14T00:37:34;8.10;;;5.63;;
30898;SDS011;17914;52.484;13.424;2024-02-14T00:40:02;6.63;;;4.00;;
30898;SDS011;17914;52.484;13.424;2024-02-14T00:42:32;6.65;;;4.88;;
30898;SDS011;17914;52.484;13.424;2024-02-14T00:45:00;5.40;;;4.70;;
30898;SDS011;17914;52.484;13.424;2024-02-14T00:47:29;7.13;;;5.25;;
30898;SDS011;17914;52.484;13.424;2024-02-14T00:50:00;7.25;;;4.63;;
30898;SDS011;17914;52.484;13.424;2024-02-14T00:52:28;11.15;;;5.75;;
30898;SDS011;17914;52.484;13.424;2024-02-14T00:54:56;9.80;;;5.32;;
30898;SDS011;17914;52.484;13.424;2024-02-14T00:57:24;9.02;;;5.72;;
30898;SDS011;17914;52.484;13.424;2024-02-14T00:59:54;10.68;;;5.93;;
30898;SDS011;17914;52.484;13.424;2024-02-14T01:02:23;7.57;;;5.07;;
30898;SDS011;17914;52.484;13.424;2024-02-14T01:04:52;9.30;;;5.85;;
30898;SDS011;17914;52.484;13.424;2024-02-14T01:07:20;7.03;;;5.10;;
30898;SDS011;17914;52.484;13.424;2024-02-14T01:09:48;6.50;;;4.68;;
30898;SDS011;17914;52.484;13.424;2024-02-14T01:12:16;7.55;;;4.75;;
30898;SDS011;17914;52.484;13.424;2024-02-14T01:14:44;6.80;;;4.95;;
30898;SDS011;17914;52.484;13.424;2024-02-14T01:17:14;10.48;;;5.45;;
30898;SDS011;17914;52.484;13.424;2024-02-14T01:19:42;5.95;;;4.88;;
30898;SDS011;17914;52.484;13.424;2024-02-14T01:22:10;7.93;;;4.75;;
30898;SDS011;17914;52.484;13.424;2024-02-14T01:24:38;5.55;;;4.45;;
30898;SDS011;17914;52.484;13.424;2024-02-14T01:27:09;7.18;;;4.93;;
30898;SDS011;17914;52.484;13.424;2024-02-14T01:29:37;6.38;;;4.78;;
30898;SDS011;17914;52.484;13.424;2024-02-14T01:32:05;6.63;;;4.63;;
30898;SDS011;17914;52.484;13.424;2024-02-14T01:34:34;5.45;;;4.78;;
30898;SDS011;17914;52.484;13.424;2024-02-14T01:37:03;6.78;;;5.15;;
30898;SDS011;17914;52.484;13.424;2024-02-14T01:39:31;8.10;;;4.72;;
30898;SDS011;17914;52.484;13.424;2024-02-14T01:41:59;6.78;;;4.65;;
30898;SDS011;17914;52.484;13.424;2024-02-14T01:44:27;6.32;;;4.70;;
30898;SDS011;17914;52.484;13.424;2024-02-14T01:46:55;7.10;;;4.53;;
30898;SDS011;17914;52.484;13.424;2024-02-14T01:49:23;8.27;;;5.07;;
30898;SDS011;17914;52.484;13.424;2024-02-14T01:51:57;7.82;;;5.07;;
30898;SDS011;17914;52.484;13.424;2024-02-14T01:54:29;7.10;;;5.28;;
30898;SDS011;17914;52.484;13.424;2024-02-14T01:56:57;7.72;;;4.47;;
30898;SDS011;17914;52.484;13.424;2024-02-14T01:59:26;7.80;;;5.13;;
30898;SDS011;17914;52.484;13.424;2024-02-14T02:01:54;6.25;;;4.82;;
30898;SDS011;17914;52.484;13.424;2024-02-14T02:04:23;6.85;;;4.72;;
30898;SDS011;17914;52.484;13.424;2024-02-14T02:06:51;5.68;;;4.25;;
30898;SDS011;17914;52.484;13.424;2024-02-14T02:09:24;7.07;;;4.45;;
30898;SDS011;17914;52.484;13.424;2024-02-14T02:11:52;5.80;;;4.05;;
30898;SDS011;17914;52.484;13.424;2024-02-14T02:14:22;5.40;;;4.30;;
30898;SDS011;17914;52.484;13.424;2024-02-14T02:16:50;7.07;;;4.45;;
30898;SDS011;17914;52.484;13.424;2024-02-14T02:19:19;6.43;;;4.28;;
30898;SDS011;17914;52.484;13.424;2024-02-14T02:21:47;5.68;;;4.45;;
30898;SDS011;17914;52.484;13.424;2024-02-14T02:24:17;5.47;;;4.00;;
30898;SDS011;17914;52.484;13.424;2024-02-14T02:26:45;7.43;;;4.57;;
30898;SDS011;17914;52.484;13.424;2024-02-14T02:29:13;5.35;;;3.88;;
30898;SDS011;17914;52.484;13.424;2024-02-14T02:31:41;4.38;;;3.80;;
30898;SDS011;17914;52.484;13.424;2024-02-14T02:34:09;6.30;;;4.75;;
30898;SDS011;17914;52.484;13.424;2024-02-14T02:36:38;4.32;;;3.67;;
30898;SDS011;17914;52.484;13.424;2024-02-14T02:39:07;6.43;;;4.57;;
30898;SDS011;17914;52.484;13.424;2024-02-14T02:41:37;6.75;;;5.07;;
30898;SDS011;17914;52.484;13.424;2024-02-14T02:44:05;5.85;;;3.85;;
30898;SDS011;17914;52.484;13.424;2024-02-14T02:46:33;6.47;;;4.18;;
30898;SDS011;17914;52.484;13.424;2024-02-14T02:49:02;5.97;;;3.67;;
30898;SDS011;17914;52.484;13.424;2024-02-14T02:51:30;5.35;;;3.92;;
30898;SDS011;17914;52.484;13.424;2024-02-14T02:53:58;6.60;;;4.20;;
30898;SDS011;17914;52.484;13.424;2024-02-14T02:56:26;6.35;;;4.32;;
30898;SDS011;17914;52.484;13.424;2024-02-14T02:58:55;6.15;;;4.18;;
30898;SDS011;17914;52.484;13.424;2024-02-14T03:01:23;5.75;;;3.60;;
30898;SDS011;17914;52.484;13.424;2024-02-14T03:03:54;5.97;;;4.20;;
30898;SDS011;17914;52.484;13.424;2024-02-14T03:06:22;6.45;;;4.57;;
30898;SDS011;17914;52.484;13.424;2024-02-14T03:08:50;4.97;;;4.20;;
30898;SDS011;17914;52.484;13.424;2024-02-14T03:11:22;5.90;;;3.60;;
30898;SDS011;17914;52.484;13.424;2024-02-14T03:13:51;6.72;;;4.13;;
30898;SDS011;17914;52.484;13.424;2024-02-14T03:16:20;5.95;;;3.97;;
30898;SDS011;17914;52.484;13.424;2024-02-14T03:18:50;4.43;;;3.88;;
30898;SDS011;17914;52.484;13.424;2024-02-14T03:21:20;5.90;;;4.00;;
30898;SDS011;17914;52.484;13.424;2024-02-14T03:23:48;7.82;;;4.18;;
30898;SDS011;17914;52.484;13.424;2024-02-14T03:26:16;4.68;;;3.65;;
30898;SDS011;17914;52.484;13.424;2024-02-14T03:28:44;8.23;;;4.20;;
30898;SDS011;17914;52.484;13.424;2024-02-14T03:31:13;6.50;;;3.58;;
30898;SDS011;17914;52.484;13.424;2024-02-14T03:33:43;4.95;;;3.88;;
30898;SDS011;17914;52.484;13.424;2024-02-14T03:36:11;4.70;;;3.28;;
30898;SDS011;17914;52.484;13.424;2024-02-14T03:38:39;5.05;;;3.35;;
30898;SDS011;17914;52.484;13.424;2024-02-14T03:41:08;4.45;;;3.40;;
30898;SDS011;17914;52.484;13.424;2024-02-14T03:43:36;6.80;;;3.63;;
30898;SDS011;17914;52.484;13.424;2024-02-14T03:46:04;4.60;;;3.60;;
30898;SDS011;17914;52.484;13.424;2024-02-14T03:48:32;5.10;;;3.65;;
30898;SDS011;17914;52.484;13.424;2024-02-14T03:51:02;4.55;;;3.50;;
30898;SDS011;17914;52.484;13.424;2024-02-14T03:53:30;6.75;;;3.60;;
30898;SDS011;17914;52.484;13.424;2024-02-14T03:55:59;3.88;;;3.33;;
30898;SDS011;17914;52.484;13.424;2024-02-14T03:58:28;3.97;;;3.33;;
30898;SDS011;17914;52.484;13.424;2024-02-14T04:00:56;6.35;;;3.70;;
30898;SDS011;17914;52.484;13.424;2024-02-14T04:03:24;4.35;;;3.40;;
30898;SDS011;17914;52.484;13.424;2024-02-14T04:05:55;4.15;;;3.60;;
30898;SDS011;17914;52.484;13.424;2024-02-14T04:08:25;4.63;;;4.00;;
30898;SDS011;17914;52.484;13.424;2024-02-14T04:10:53;4.43;;;2.95;;
30898;SDS011;17914;52.484;13.424;2024-02-14T04:13:21;4.25;;;3.17;;
30898;SDS011;17914;52.484;13.424;2024-02-14T04:15:49;5.03;;;3.40;;
30898;SDS011;17914;52.484;13.424;2024-02-14T04:18:17;5.60;;;3.92;;
30898;SDS011;17914;52.484;13.424;2024-02-14T04:20:45;4.28;;;3.28;;
30898;SDS011;17914;52.484;13.424;2024-02-14T04:23:14;4.30;;;3.08;;
30898;SDS011;17914;52.484;13.424;2024-02-14T04:25:44;3.75;;;3.00;;
30898;SDS011;17914;52.484;13.424;2024-02-14T04:28:12;6.18;;;3.75;;
30898;SDS011;17914;52.484;13.424;2024-02-14T04:30:40;4.00;;;3.53;;
30898;SDS011;17914;52.484;13.424;2024-02-14T04:33:09;3.72;;;3.30;;
30898;SDS011;17914;52.484;13.424;2024-02-14T04:35:40;4.28;;;3.25;;
30898;SDS011;17914;52.484;13.424;2024-02-14T04:38:08;3.95;;;3.00;;
30898;SDS011;17914;52.484;13.424;2024-02-14T04:40:36;5.60;;;3.60;;
30898;SDS011;17914;52.484;13.424;2024-02-14T04:43:05;4.55;;;3.42;;
30898;SDS011;17914;52.484;13.424;2024-02-14T04:45:34;4.40;;;3.20;;
30898;SDS011;17914;52.484;13.424;2024-02-14T04:48:02;4.63;;;3.85;;
30898;SDS011;17914;52.484;13.424;2024-02-14T04:50:30;5.43;;;3.85;;
30898;SDS011;17914;52.484;13.424;2024-02-14T04:52:59;3.78;;;3.25;;
30898;SDS011;17914;52.484;13.424;2024-02-14T04:55:26;5.18;;;2.92;;
30898;SDS011;17914;52.484;13.424;2024-02-14T04:57:55;5.55;;;4.10;;
30898;SDS011;17914;52.484;13.424;2024-02-14T05:00:25;6.55;;;3.50;;
30898;SDS011;17914;52.484;13.424;2024-02-14T05:02:54;5.68;;;3.63;;
30898;SDS011;17914;52.484;13.424;2024-02-14T05:05:23;4.53;;;3.25;;
30898;SDS011;17914;52.484;13.424;2024-02-14T05:07:51;6.32;;;4.15;;
30898;SDS011;17914;52.484;13.424;2024-02-14T05:10:20;4.93;;;3.58;;
30898;SDS011;17914;52.484;13.424;2024-02-14T05:12:48;6.78;;;3.80;;
30898;SDS011;17914;52.484;13.424;2024-02-14T05:15:16;7.10;;;3.58;;
30898;SDS011;17914;52.484;13.424;2024-02-14T05:17:46;7.47;;;3.58;;
30898;SDS011;17914;52.484;13.424;2024-02-14T05:20:16;4.32;;;3.92;;
30898;SDS011;17914;52.484;13.424;2024-02-14T05:22:44;5.43;;;3.83;;
30898;SDS011;17914;52.484;13.424;2024-02-14T05:25:12;4.10;;;3.60;;
30898;SDS011;17914;52.484;13.424;2024-02-14T05:27:40;5.05;;;3.88;;
30898;SDS011;17914;52.484;13.424;2024-02-14T05:30:08;4.60;;;3.47;;
30898;SDS011;17914;52.484;13.424;2024-02-14T05:32:36;6.10;;;4.10;;
30898;SDS011;17914;52.484;13.424;2024-02-14T05:35:07;5.18;;;4.30;;
30898;SDS011;17914;52.484;13.424;2024-02-14T05:37:36;4.45;;;3.58;;
30898;SDS011;17914;52.484;13.424;2024-02-14T05:40:05;5.35;;;4.03;;
30898;SDS011;17914;52.484;13.424;2024-02-14T05:42:34;4.90;;;3.92;;
30898;SDS011;17914;52.484;13.424;2024-02-14T05:45:02;7.47;;;3.90;;
30898;SDS011;17914;52.484;13.424;2024-02-14T05:47:32;4.95;;;3.60;;
30898;SDS011;17914;52.484;13.424;2024-02-14T05:50:00;5.80;;;4.05;;
30898;SDS011;17914;52.484;13.424;2024-02-14T05:52:30;4.68;;;4.03;;
30898;SDS011;17914;52.484;13.424;2024-02-14T05:54:58;6.00;;;3.97;;
30898;SDS011;17914;52.484;13.424;2024-02-14T05:57:26;5.40;;;3.88;;
30898;SDS011;17914;52.484;13.424;2024-02-14T05:59:54;7.05;;;3.28;;
30898;SDS011;17914;52.484;13.424;2024-02-14T06:02:23;5.22;;;3.60;;
30898;SDS011;17914;52.484;13.424;2024-02-14T06:04:51;5.75;;;4.05;;
30898;SDS011;17914;52.484;13.424;2024-02-14T06:07:19;4.40;;;3.78;;
30898;SDS011;17914;52.484;13.424;2024-02-14T06:09:49;7.20;;;3.33;;
30898;SDS011;17914;52.484;13.424;2024-02-14T06:12:17;5.20;;;3.92;;
30898;SDS011;17914;52.484;13.424;2024-02-14T06:14:47;5.97;;;4.22;;
30898;SDS011;17914;52.484;13.424;2024-02-14T06:17:16;6.63;;;4.47;;
30898;SDS011;17914;52.484;13.424;2024-02-14T06:19:44;6.80;;;4.32;;
30898;SDS011;17914;52.484;13.424;2024-02-14T06:22:12;5.10;;;3.80;;
30898;SDS011;17914;52.484;13.424;2024-02-14T06:24:40;7.00;;;4.57;;
30898;SDS011;17914;52.484;13.424;2024-02-14T06:27:09;12.88;;;4.72;;
30898;SDS011;17914;52.484;13.424;2024-02-14T06:29:37;5.15;;;3.88;;
30898;SDS011;17914;52.484;13.424;2024-02-14T06:32:06;11.00;;;5.03;;
30898;SDS011;17914;52.484;13.424;2024-02-14T06:34:34;7.03;;;4.13;;
30898;SDS011;17914;52.484;13.424;2024-02-14T06:37:02;4.30;;;3.25;;
30898;SDS011;17914;52.484;13.424;2024-02-14T06:39:31;7.57;;;4.13;;
30898;SDS011;17914;52.484;13.424;2024-02-14T06:41:59;7.75;;;3.95;;
30898;SDS011;17914;52.484;13.424;2024-02-14T06:44:28;7.55;;;3.80;;
30898;SDS011;17914;52.484;13.424;2024-02-14T06:46:58;5.93;;;3.70;;
30898;SDS011;17914;52.484;13.424;2024-02-14T06:49:26;4.97;;;3.30;;
30898;SDS011;17914;52.484;13.424;2024-02-14T06:51:55;4.15;;;3.20;;
30898;SDS011;17914;52.484;13.424;2024-02-14T06:54:23;9.20;;;3.78;;
30898;SDS011;17914;52.484;13.424;2024-02-14T06:56:51;4.00;;;3.60;;
30898;SDS011;17914;52.484;13.424;2024-02-14T06:59:19;5.10;;;4.07;;
30898;SDS011;17914;52.484;13.424;2024-02-14T07:01:48;5.88;;;3.15;;
30898;SDS011;17914;52.484;13.424;2024-02-14T07:04:19;6.32;;;3.33;;
30898;SDS011;17914;52.484;13.424;2024-02-14T07:06:52;9.38;;;3.65;;
30898;SDS011;17914;52.484;13.424;2024-02-14T07:09:20;5.95;;;3.92;;
30898;SDS011;17914;52.484;13.424;2024-02-14T07:11:48;6.43;;;3.97;;
30898;SDS011;17914;52.484;13.424;2024-02-14T07:14:17;4.50;;;4.10;;
30898;SDS011;17914;52.484;13.424;2024-02-14T07:16:45;6.47;;;4.13;;
30898;SDS011;17914;52.484;13.424;2024-02-14T07:19:14;4.32;;;3.58;;
30898;SDS011;17914;52.484;13.424;2024-02-14T07:21:42;4.68;;;3.15;;
30898;SDS011;17914;52.484;13.424;2024-02-14T07:24:11;5.22;;;4.13;;
30898;SDS011;17914;52.484;13.424;2024-02-14T07:26:39;5.03;;;3.30;;
30898;SDS011;17914;52.484;13.424;2024-02-14T07:29:10;6.30;;;3.53;;
30898;SDS011;17914;52.484;13.424;2024-02-14T07:31:38;4.30;;;3.58;;
30898;SDS011;17914;52.484;13.424;2024-02-14T07:34:06;3.00;;;2.60;;
30898;SDS011;17914;52.484;13.424;2024-02-14T07:36:37;4.18;;;3.33;;
30898;SDS011;17914;52.484;13.424;2024-02-14T07:39:07;4.20;;;2.72;;
30898;SDS011;17914;52.484;13.424;2024-02-14T07:41:35;6.38;;;3.30;;
30898;SDS011;17914;52.484;13.424;2024-02-14T07:44:03;5.13;;;3.30;;
30898;SDS011;17914;52.484;13.424;2024-02-14T07:46:32;5.82;;;3.40;;
30898;SDS011;17914;52.484;13.424;2024-02-14T07:49:00;6.00;;;3.92;;
30898;SDS011;17914;52.484;13.424;2024-02-14T07:51:28;4.93;;;3.15;;
30898;SDS011;17914;52.484;13.424;2024-02-14T07:54:01;4.45;;;2.90;;
30898;SDS011;17914;52.484;13.424;2024-02-14T07:56:30;6.55;;;3.47;;
30898;SDS011;17914;52.484;13.424;2024-02-14T07:58:58;7.20;;;3.22;;
30898;SDS011;17914;52.484;13.424;2024-02-14T08:01:26;5.07;;;3.05;;
30898;SDS011;17914;52.484;13.424;2024-02-14T08:03:54;6.20;;;3.60;;
30898;SDS011;17914;52.484;13.424;2024-02-14T08:06:22;7.70;;;3.60;;
30898;SDS011;17914;52.484;13.424;2024-02-14T08:08:51;5.15;;;3.10;;
30898;SDS011;17914;52.484;13.424;2024-02-14T08:11:25;4.63;;;2.97;;
30898;SDS011;17914;52.484;13.424;2024-02-14T08:13:53;4.57;;;2.80;;
30898;SDS011;17914;52.484;13.424;2024-02-14T08:16:21;9.45;;;3.15;;
30898;SDS011;17914;52.484;13.424;2024-02-14T08:18:49;4.25;;;3.20;;
30898;SDS011;17914;52.484;13.424;2024-02-14T08:21:21;4.97;;;3.03;;
30898;SDS011;17914;52.484;13.424;2024-02-14T08:23:52;7.78;;;3.97;;
30898;SDS011;17914;52.484;13.424;2024-02-14T08:26:23;3.28;;;2.88;;
30898;SDS011;17914;52.484;13.424;2024-02-14T08:28:53;4.22;;;3.05;;
30898;SDS011;17914;52.484;13.424;2024-02-14T08:31:21;4.20;;;3.42;;
30898;SDS011;17914;52.484;13.424;2024-02-14T08:33:50;5.53;;;3.50;;
30898;SDS011;17914;52.484;13.424;2024-02-14T08:36:23;4.57;;;3.60;;
30898;SDS011;17914;52.484;13.424;2024-02-14T08:38:51;3.90;;;2.90;;
30898;SDS011;17914;52.484;13.424;2024-02-14T08:41:19;4.88;;;3.25;;
30898;SDS011;17914;52.484;13.424;2024-02-14T08:43:50;4.47;;;2.90;;
30898;SDS011;17914;52.484;13.424;2024-02-14T08:46:18;7.10;;;3.17;;
30898;SDS011;17914;52.484;13.424;2024-02-14T08:48:46;5.07;;;3.45;;
30898;SDS011;17914;52.484;13.424;2024-02-14T08:51:15;4.18;;;3.20;;
30898;SDS011;17914;52.484;13.424;2024-02-14T08:53:46;6.72;;;2.63;;
30898;SDS011;17914;52.484;13.424;2024-02-14T08:56:14;7.57;;;2.63;;
30898;SDS011;17914;52.484;13.424;2024-02-14T08:58:43;6.00;;;3.22;;
30898;SDS011;17914;52.484;13.424;2024-02-14T09:01:13;4.50;;;2.80;;
30898;SDS011;17914;52.484;13.424;2024-02-14T09:03:42;8.30;;;2.93;;
30898;SDS011;17914;52.484;13.424;2024-02-14T09:06:15;5.95;;;2.28;;
30898;SDS011;17914;52.484;13.424;2024-02-14T09:08:44;6.03;;;2.75;;
30898;SDS011;17914;52.484;13.424;2024-02-14T09:11:13;3.22;;;2.38;;
30898;SDS011;17914;52.484;13.424;2024-02-14T09:13:41;3.88;;;3.05;;
30898;SDS011;17914;52.484;13.424;2024-02-14T09:16:09;6.00;;;3.10;;
30898;SDS011;17914;52.484;13.424;2024-02-14T09:18:39;4.90;;;2.58;;
30898;SDS011;17914;52.484;13.424;2024-02-14T09:21:07;6.45;;;2.95;;
30898;SDS011;17914;52.484;13.424;2024-02-14T09:23:35;5.30;;;3.10;;
30898;SDS011;17914;52.484;13.424;2024-02-14T09:26:06;4.55;;;2.80;;
30898;SDS011;17914;52.484;13.424;2024-02-14T09:28:34;5.50;;;2.72;;
30898;SDS011;17914;52.484;13.424;2024-02-14T09:31:02;3.70;;;2.65;;
30898;SDS011;17914;52.484;13.424;2024-02-14T09:33:31;6.55;;;2.90;;
30898;SDS011;17914;52.484;13.424;2024-02-14T09:36:00;7.13;;;2.83;;
30898;SDS011;17914;52.484;13.424;2024-02-14T09:38:28;6.55;;;2.17;;
30898;SDS011;17914;52.484;13.424;2024-02-14T09:40:58;11.32;;;3.70;;
30898;SDS011;17914;52.484;13.424;2024-02-14T09:43:35;7.28;;;2.63;;
30898;SDS011;17914;52.484;13.424;2024-02-14T09:46:05;6.03;;;3.13;;
30898;SDS011;17914;52.484;13.424;2024-02-14T09:48:34;8.40;;;3.03;;
30898;SDS011;17914;52.484;13.424;2024-02-14T09:51:06;10.27;;;3.65;;
30898;SDS011;17914;52.484;13.424;2024-02-14T09:53:35;9.90;;;3.10;;
30898;SDS011;17914;52.484;13.424;2024-02-14T09:56:04;10.15;;;2.97;;
30898;SDS011;17914;52.484;13.424;2024-02-14T09:58:32;5.88;;;2.80;;
30898;SDS011;17914;52.484;13.424;2024-02-14T10:01:02;6.50;;;2.55;;
30898;SDS011;17914;52.484;13.424;2024-02-14T10:03:31;9.30;;;2.92;;
30898;SDS011;17914;52.484;13.424;2024-02-14T10:05:59;5.63;;;2.30;;
30898;SDS011;17914;52.484;13.424;2024-02-14T10:08:28;3.80;;;2.47;;
30898;SDS011;17914;52.484;13.424;2024-02-14T10:10:57;4.25;;;2.35;;
30898;SDS011;17914;52.484;13.424;2024-02-14T10:13:26;4.82;;;2.67;;
30898;SDS011;17914;52.484;13.424;2024-02-14T10:15:55;7.50;;;2.80;;
30898;SDS011;17914;52.484;13.424;2024-02-14T10:18:23;6.35;;;2.60;;
30898;SDS011;17914;52.484;13.424;2024-02-14T10:20:53;4.43;;;2.30;;
30898;SDS011;17914;52.484;13.424;2024-02-14T10:23:22;5.05;;;2.47;;
30898;SDS011;17914;52.484;13.424;2024-02-14T10:25:53;2.78;;;2.30;;
30898;SDS011;17914;52.484;13.424;2024-02-14T10:28:22;3.63;;;1.90;;
30898;SDS011;17914;52.484;13.424;2024-02-14T10:31:01;3.95;;;2.20;;
30898;SDS011;17914;52.484;13.424;2024-02-14T10:33:30;5.70;;;2.53;;
30898;SDS011;17914;52.484;13.424;2024-02-14T10:35:58;6.25;;;2.45;;
30898;SDS011;17914;52.484;13.424;2024-02-14T10:38:30;3.10;;;2.20;;
30898;SDS011;17914;52.484;13.424;2024-02-14T10:41:01;3.30;;;2.47;;
30898;SDS011;17914;52.484;13.424;2024-02-14T10:43:33;5.65;;;2.60;;
30898;SDS011;17914;52.484;13.424;2024-02-14T10:46:08;3.78;;;2.50;;
30898;SDS011;17914;52.484;13.424;2024-02-14T10:48:45;4.15;;;2.42;;
30898;SDS011;17914;52.484;13.424;2024-02-14T10:51:14;6.05;;;2.22;;
30898;SDS011;17914;52.484;13.424;2024-02-14T10:53:44;3.88;;;2.25;;
30898;SDS011;17914;52.484;13.424;2024-02-14T10:56:16;4.37;;;2.57;;
30898;SDS011;17914;52.484;13.424;2024-02-14T11:01:14;4.75;;;2.55;;
30898;SDS011;17914;52.484;13.424;2024-02-14T11:03:43;5.90;;;3.25;;
30898;SDS011;17914;52.484;13.424;2024-02-14T11:06:15;4.57;;;2.20;;
30898;SDS011;17914;52.484;13.424;2024-02-14T11:08:54;3.88;;;2.20;;
30898;SDS011;17914;52.484;13.424;2024-02-14T11:11:27;3.83;;;2.65;;
30898;SDS011;17914;52.484;13.424;2024-02-14T11:13:57;3.60;;;2.95;;
30898;SDS011;17914;52.484;13.424;2024-02-14T11:16:25;2.90;;;1.90;;
30898;SDS011;17914;52.484;13.424;2024-02-14T11:19:05;4.47;;;2.67;;
30898;SDS011;17914;52.484;13.424;2024-02-14T11:21:36;3.63;;;2.05;;
30898;SDS011;17914;52.484;13.424;2024-02-14T11:24:05;3.20;;;2.50;;
30898;SDS011;17914;52.484;13.424;2024-02-14T11:26:39;3.97;;;2.33;;
30898;SDS011;17914;52.484;13.424;2024-02-14T11:29:13;4.05;;;2.15;;
30898;SDS011;17914;52.484;13.424;2024-02-14T11:31:48;3.67;;;2.35;;
30898;SDS011;17914;52.484;13.424;2024-02-14T11:34:25;3.78;;;2.40;;
30898;SDS011;17914;52.484;13.424;2024-02-14T11:36:53;2.90;;;2.60;;
30898;SDS011;17914;52.484;13.424;2024-02-14T11:39:21;4.70;;;2.15;;
30898;SDS011;17914;52.484;13.424;2024-02-14T11:41:50;2.40;;;2.05;;
30898;SDS011;17914;52.484;13.424;2024-02-14T11:44:19;7.57;;;2.67;;
30898;SDS011;17914;52.484;13.424;2024-02-14T11:46:48;2.42;;;2.03;;
30898;SDS011;17914;52.484;13.424;2024-02-14T11:49:16;5.00;;;2.42;;
30898;SDS011;17914;52.484;13.424;2024-02-14T11:51:45;7.03;;;2.88;;
30898;SDS011;17914;52.484;13.424;2024-02-14T11:54:14;3.92;;;2.40;;
30898;SDS011;17914;52.484;13.424;2024-02-14T11:56:42;5.70;;;2.45;;
30898;SDS011;17914;52.484;13.424;2024-02-14T11:59:11;6.50;;;2.20;;
30898;SDS011;17914;52.484;13.424;2024-02-14T12:04:09;4.72;;;2.53;;
30898;SDS011;17914;52.484;13.424;2024-02-14T12:06:38;4.88;;;2.38;;
30898;SDS011;17914;52.484;13.424;2024-02-14T12:09:09;3.78;;;2.30;;
30898;SDS011;17914;52.484;13.424;2024-02-14T12:11:39;5.93;;;3.50;;
30898;SDS011;17914;52.484;13.424;2024-02-14T12:14:11;3.53;;;2.22;;
30898;SDS011;17914;52.484;13.424;2024-02-14T12:16:40;3.47;;;2.55;;
30898;SDS011;17914;52.484;13.424;2024-02-14T12:19:09;3.35;;;2.50;;
30898;SDS011;17914;52.484;13.424;2024-02-14T12:21:43;5.25;;;2.05;;
30898;SDS011;17914;52.484;13.424;2024-02-14T12:24:12;3.30;;;2.72;;
30898;SDS011;17914;52.484;13.424;2024-02-14T12:26:42;5.35;;;2.75;;
30898;SDS011;17914;52.484;13.424;2024-02-14T12:29:12;6.07;;;2.40;;
30898;SDS011;17914;52.484;13.424;2024-02-14T12:31:40;6.65;;;2.30;;
30898;SDS011;17914;52.484;13.424;2024-02-14T12:34:10;3.88;;;2.22;;
30898;SDS011;17914;52.484;13.424;2024-02-14T12:36:39;5.18;;;2.20;;
30898;SDS011;17914;52.484;13.424;2024-02-14T12:39:08;3.55;;;2.65;;
30898;SDS011;17914;52.484;13.424;2024-02-14T12:41:39;3.72;;;2.30;;
30898;SDS011;17914;52.484;13.424;2024-02-14T12:44:07;6.20;;;2.22;;
30898;SDS011;17914;52.484;13.424;2024-02-14T12:46:36;4.13;;;2.30;;
30898;SDS011;17914;52.484;13.424;2024-02-14T12:49:05;3.30;;;2.20;;
30898;SDS011;17914;52.484;13.424;2024-02-14T12:51:35;4.32;;;2.17;;
30898;SDS011;17914;52.484;13.424;2024-02-14T12:54:05;4.93;;;2.75;;
30898;SDS011;17914;52.484;13.424;2024-02-14T12:56:33;3.55;;;2.20;;
30898;SDS011;17914;52.484;13.424;2024-02-14T12:59:02;2.28;;;2.08;;
30898;SDS011;17914;52.484;13.424;2024-02-14T13:01:30;3.55;;;2.33;;
30898;SDS011;17914;52.484;13.424;2024-02-14T13:03:59;3.15;;;2.20;;
30898;SDS011;17914;52.484;13.424;2024-02-14T13:06:31;3.90;;;2.10;;
30898;SDS011;17914;52.484;13.424;2024-02-14T13:09:00;2.90;;;2.55;;
30898;SDS011;17914;52.484;13.424;2024-02-14T13:11:28;3.25;;;2.20;;
30898;SDS011;17914;52.484;13.424;2024-02-14T13:13:58;3.42;;;2.10;;
30898;SDS011;17914;52.484;13.424;2024-02-14T13:16:26;3.10;;;2.13;;
30898;SDS011;17914;52.484;13.424;2024-02-14T13:18:54;5.22;;;2.20;;
30898;SDS011;17914;52.484;13.424;2024-02-14T13:21:24;2.42;;;2.08;;
30898;SDS011;17914;52.484;13.424;2024-02-14T13:23:52;2.83;;;2.00;;
30898;SDS011;17914;52.484;13.424;2024-02-14T13:26:20;3.58;;;2.33;;
30898;SDS011;17914;52.484;13.424;2024-02-14T13:28:49;2.70;;;2.10;;
30898;SDS011;17914;52.484;13.424;2024-02-14T13:31:17;3.97;;;2.28;;
30898;SDS011;17914;52.484;13.424;2024-02-14T13:33:45;1.98;;;1.73;;
30898;SDS011;17914;52.484;13.424;2024-02-14T13:36:14;2.35;;;1.77;;
30898;SDS011;17914;52.484;13.424;2024-02-14T13:38:44;2.60;;;1.90;;
30898;SDS011;17914;52.484;13.424;2024-02-14T13:41:13;3.67;;;2.33;;
30898;SDS011;17914;52.484;13.424;2024-02-14T13:43:41;3.75;;;1.90;;
30898;SDS011;17914;52.484;13.424;2024-02-14T13:46:10;4.30;;;2.03;;
30898;SDS011;17914;52.484;13.424;2024-02-14T13:48:38;3.50;;;1.85;;
30898;SDS011;17914;52.484;13.424;2024-02-14T13:51:07;2.72;;;1.95;;
30898;SDS011;17914;52.484;13.424;2024-02-14T13:53:36;3.75;;;2.30;;
30898;SDS011;17914;52.484;13.424;2024-02-14T13:56:07;2.55;;;1.98;;
30898;SDS011;17914;52.484;13.424;2024-02-14T13:58:35;3.08;;;1.85;;
30898;SDS011;17914;52.484;13.424;2024-02-14T14:01:04;2.30;;;1.85;;
30898;SDS011;17914;52.484;13.424;2024-02-14T14:03:34;2.75;;;1.83;;
30898;SDS011;17914;52.484;13.424;2024-02-14T14:06:03;3.97;;;1.70;;
30898;SDS011;17914;52.484;13.424;2024-02-14T14:08:34;3.88;;;1.85;;
30898;SDS011;17914;52.484;13.424;2024-02-14T14:11:03;2.13;;;1.80;;
30898;SDS011;17914;52.484;13.424;2024-02-14T14:13:32;3.42;;;2.00;;
30898;SDS011;17914;52.484;13.424;2024-02-14T14:16:00;3.28;;;2.20;;
30898;SDS011;17914;52.484;13.424;2024-02-14T14:18:29;2.15;;;1.80;;
30898;SDS011;17914;52.484;13.424;2024-02-14T14:20:58;2.05;;;1.85;;
30898;SDS011;17914;52.484;13.424;2024-02-14T14:23:26;3.90;;;2.08;;
30898;SDS011;17914;52.484;13.424;2024-02-14T14:25:54;4.05;;;2.20;;
30898;SDS011;17914;52.484;13.424;2024-02-14T14:28:22;4.95;;;2.40;;
30898;SDS011;17914;52.484;13.424;2024-02-14T14:30:53;3.22;;;1.90;;
30898;SDS011;17914;52.484;13.424;2024-02-14T14:33:21;2.33;;;1.45;;
30898;SDS011;17914;52.484;13.424;2024-02-14T14:35:49;2.00;;;1.70;;
30898;SDS011;17914;52.484;13.424;2024-02-14T14:38:19;4.75;;;2.00;;
30898;SDS011;17914;52.484;13.424;2024-02-14T14:40:47;2.08;;;1.77;;
30898;SDS011;17914;52.484;13.424;2024-02-14T14:43:16;4.90;;;1.92;;
30898;SDS011;17914;52.484;13.424;2024-02-14T14:45:45;2.25;;;1.63;;
30898;SDS011;17914;52.484;13.424;2024-02-14T14:48:17;2.10;;;1.90;;